Time;durP1;ratioP1;P1;durP2;ratioP2;P2;SDS_P1;SDS_P2;PMS_P1;PMS_P2;Temp;Humidity;BMP_temperature;BMP_pressure;BME280_temperature;BME280_humidity;BME280_pressure;Samples;Min_cycle;Max_cycle;Signal;HPM_P1;HPM_P2
2022/06/07 14:51:40;;;;;;;1.10;0.30;;;40.60;48.40;;;;;;5102224;23;20135;-78
2022/06/07 14:54:16;;;;;;;1.88;0.30;;;41.50;47.20;;;;;;4908182;29;20025;-78
2022/06/07 14:56:42;;;;;;;2.22;0.32;;;42.50;46.40;;;;;;4907530;29;20044;-78
2022/06/07 14:59:08;;;;;;;1.48;0.30;;;43.40;45.30;;;;;;4908159;29;20076;-78
2022/06/07 15:01:40;;;;;;;1.75;0.30;;;42.90;44.70;;;;;;4908709;29;20115;-78
2022/06/07 15:04:12;;;;;;;1.70;0.63;;;40.90;46.00;;;;;;4907883;29;20044;-77
2022/06/07 15:06:40;;;;;;;2.65;0.43;;;38.60;47.30;;;;;;4908630;29;20038;-78
2022/06/07 15:09:14;;;;;;;1.55;0.38;;;36.10;48.70;;;;;;4908573;29;20107;-77
2022/06/07 15:11:40;;;;;;;2.38;0.40;;;34.40;51.30;;;;;;4908883;29;20043;-77
2022/06/07 15:14:06;;;;;;;2.53;0.40;;;32.50;53.60;;;;;;4908075;29;20056;-78
2022/06/07 15:16:34;;;;;;;1.08;0.45;;;31.40;54.20;;;;;;4908046;29;20049;-78
2022/06/07 15:19:03;;;;;;;1.48;0.35;;;30.20;56.40;;;;;;4907996;29;20095;-77
2022/06/07 15:21:29;;;;;;;0.88;0.30;;;29.70;57.10;;;;;;4908503;29;20095;-77
2022/06/07 15:23:55;;;;;;;1.35;0.70;;;29.10;58.30;;;;;;4907467;29;20126;-77
2022/06/07 15:26:25;;;;;;;1.80;0.47;;;28.70;59.50;;;;;;4907036;29;20056;-78
2022/06/07 15:28:51;;;;;;;1.45;0.50;;;28.30;60.10;;;;;;4907509;29;20028;-78
2022/06/07 15:31:20;;;;;;;2.08;0.40;;;27.70;60.40;;;;;;4908016;29;20112;-77
2022/06/07 15:33:49;;;;;;;2.80;0.50;;;27.30;62.70;;;;;;4908325;29;20091;-78
2022/06/07 15:36:16;;;;;;;4.07;0.60;;;27.10;63.80;;;;;;4908061;29;20096;-79
2022/06/07 15:38:47;;;;;;;3.42;0.60;;;26.90;63.00;;;;;;4907151;29;20032;-77
2022/06/07 15:43:57;;;;;;;1.67;0.65;;;26.60;63.90;;;;;;4907326;29;20330;-77
2022/06/07 15:46:24;;;;;;;2.28;0.98;;;26.40;64.20;;;;;;4907473;29;20234;-77
2022/06/07 15:48:51;;;;;;;2.55;0.52;;;26.20;64.50;;;;;;4907225;29;20044;-78
2022/06/07 15:51:18;;;;;;;3.30;0.80;;;25.80;65.20;;;;;;4907312;29;20330;-77
2022/06/07 15:53:44;;;;;;;1.92;0.45;;;25.70;66.40;;;;;;4907781;29;20353;-77
2022/06/07 15:56:11;;;;;;;2.67;0.70;;;25.60;66.10;;;;;;4907061;29;20040;-76
2022/06/07 16:01:24;;;;;;;1.40;0.40;;;25.30;66.70;;;;;;4910468;29;20045;-77
2022/06/07 16:03:55;;;;;;;2.92;0.65;;;25.10;67.50;;;;;;4908158;29;20096;-77
2022/06/07 16:06:24;;;;;;;1.00;0.50;;;25.00;67.60;;;;;;4907791;29;20032;-77
2022/06/07 16:08:50;;;;;;;2.20;0.70;;;24.80;69.00;;;;;;4906838;29;20192;-77
2022/06/07 16:11:16;;;;;;;2.10;0.80;;;24.60;72.70;;;;;;4907556;29;20046;-78
2022/06/07 16:13:51;;;;;;;3.60;1.15;;;24.60;73.60;;;;;;4907670;29;20064;-78
2022/06/07 16:16:18;;;;;;;2.55;0.85;;;24.40;75.00;;;;;;4884061;29;20052;-77
2022/06/07 16:18:46;;;;;;;2.17;0.70;;;24.30;76.10;;;;;;4913827;29;20036;-77
2022/06/07 16:21:12;;;;;;;2.80;0.60;;;24.20;77.00;;;;;;4906767;29;20028;-77
2022/06/07 16:23:40;;;;;;;2.53;0.70;;;24.50;76.50;;;;;;4907496;29;20049;-78
2022/06/07 16:26:07;;;;;;;1.85;0.75;;;24.30;75.20;;;;;;4905250;29;20025;-77
2022/06/07 16:34:03;;;;;;;3.30;0.70;;;24.10;75.10;;;;;;4906817;29;20028;-78
2022/06/07 16:36:35;;;;;;;2.42;0.60;;;23.90;77.00;;;;;;4906550;29;20028;-77
2022/06/07 16:39:03;;;;;;;2.15;0.90;;;23.80;77.30;;;;;;4906487;29;20063;-77
2022/06/07 16:41:29;;;;;;;3.00;1.20;;;23.70;76.80;;;;;;4907020;29;20210;-77
2022/06/07 16:44:01;;;;;;;4.35;1.40;;;23.50;77.20;;;;;;4906704;29;20314;-78
2022/06/07 16:46:33;;;;;;;3.67;0.82;;;23.30;77.90;;;;;;4906832;29;20375;-77
2022/06/07 16:49:02;;;;;;;2.40;0.80;;;23.20;78.80;;;;;;4905338;29;20307;-77
2022/06/07 16:51:28;;;;;;;2.10;1.00;;;23.00;79.50;;;;;;4906657;29;20255;-77
2022/06/07 16:53:55;;;;;;;2.60;0.85;;;22.90;80.10;;;;;;4906188;29;20048;-77
2022/06/07 16:56:23;;;;;;;1.73;0.80;;;22.50;80.10;;;;;;4906839;29;20210;-77
2022/06/07 16:58:50;;;;;;;2.58;0.90;;;22.10;82.60;;;;;;4906675;29;20083;-76
2022/06/07 17:01:16;;;;;;;1.45;0.70;;;21.70;85.40;;;;;;4905948;29;20116;-78
2022/06/07 17:03:43;;;;;;;2.30;0.80;;;21.10;90.40;;;;;;4907170;29;20340;-79
2022/06/07 17:06:10;;;;;;;4.18;1.15;;;20.30;93.60;;;;;;4906396;29;20020;-78
2022/06/07 17:08:37;;;;;;;5.22;1.20;;;19.60;96.70;;;;;;4906756;29;20033;-79
2022/06/07 17:11:03;;;;;;;4.60;1.00;;;18.60;99.50;;;;;;4906714;29;20270;-78
2022/06/07 17:13:29;;;;;;;3.58;0.82;;;17.90;99.90;;;;;;4906009;29;20035;-78
2022/06/07 17:15:57;;;;;;;3.85;0.90;;;17.40;99.90;;;;;;4905999;29;20137;-77
2022/06/07 17:18:23;;;;;;;1.80;0.80;;;17.20;99.90;;;;;;4906786;29;20345;-78
2022/06/07 17:20:49;;;;;;;2.05;0.70;;;16.90;99.90;;;;;;4905613;29;20394;-80
2022/06/07 17:23:16;;;;;;;4.75;0.77;;;16.90;99.90;;;;;;4905969;29;20032;-76
2022/06/07 17:25:44;;;;;;;2.60;0.55;;;16.90;99.90;;;;;;4906533;29;20351;-78
2022/06/07 17:28:11;;;;;;;1.63;0.50;;;16.90;99.90;;;;;;4906277;29;20047;-78
2022/06/07 17:30:37;;;;;;;2.08;0.40;;;16.90;99.90;;;;;;4906188;29;20382;-78
2022/06/07 17:33:04;;;;;;;1.40;0.47;;;17.10;99.90;;;;;;4905902;29;20021;-79
2022/06/07 17:35:31;;;;;;;1.45;0.40;;;17.30;99.90;;;;;;4906646;29;20016;-78
2022/06/07 17:38:00;;;;;;;1.90;0.50;;;17.50;99.90;;;;;;4905887;29;20136;-78
2022/06/07 17:40:29;;;;;;;;;;;17.80;99.90;;;;;;4906956;29;20240;-78
2022/06/07 17:42:55;;;;;;;2.78;0.77;;;18.10;99.90;;;;;;4904952;29;19908;-79
2022/06/07 17:45:21;;;;;;;3.00;0.70;;;18.40;99.90;;;;;;4905894;29;20043;-78
2022/06/07 17:47:47;;;;;;;3.05;0.68;;;18.70;99.90;;;;;;4906487;29;20060;-78
2022/06/07 17:50:22;;;;;;;3.42;0.95;;;18.90;99.90;;;;;;4904682;29;20108;-77
2022/06/07 17:52:48;;;;;;;3.33;0.65;;;19.00;99.90;;;;;;4906385;29;20036;-79
2022/06/07 17:55:15;;;;;;;5.15;1.10;;;18.80;99.90;;;;;;4905807;29;20223;-78
2022/06/07 17:57:45;;;;;;;3.40;0.90;;;18.80;99.90;;;;;;4906475;29;20310;-77
2022/06/07 18:00:16;;;;;;;3.20;1.05;;;18.60;99.10;;;;;;4905596;29;20041;-78
2022/06/07 18:02:43;;;;;;;3.10;1.10;;;18.40;99.90;;;;;;4909497;29;20036;-78
2022/06/07 18:05:11;;;;;;;3.88;1.42;;;18.40;99.90;;;;;;4909327;29;20095;-78
2022/06/07 18:07:37;;;;;;;5.03;1.60;;;18.20;99.40;;;;;;4909839;29;20234;-77
2022/06/07 18:10:05;;;;;;;4.90;1.95;;;18.30;99.90;;;;;;4909283;29;20020;-77
2022/06/07 18:12:32;;;;;;;4.53;1.30;;;18.40;99.90;;;;;;4910133;29;20204;-78
2022/06/07 18:14:58;;;;;;;4.38;1.20;;;18.50;99.90;;;;;;4909298;29;20102;-78
2022/06/07 18:17:24;;;;;;;5.57;1.15;;;18.50;99.90;;;;;;4909682;29;20061;-77
2022/06/07 18:19:50;;;;;;;7.28;1.13;;;18.60;99.90;;;;;;4908612;29;20103;-78
2022/06/07 18:22:25;;;;;;;5.43;1.65;;;18.50;99.90;;;;;;4909171;29;20032;-77
2022/06/07 18:24:52;;;;;;;7.63;2.10;;;18.50;99.90;;;;;;4909716;29;20032;-78
2022/06/07 18:27:18;;;;;;;4.60;1.63;;;18.40;99.90;;;;;;4908977;29;20047;-78
2022/06/07 18:29:45;;;;;;;5.53;1.80;;;18.30;99.90;;;;;;4909079;29;20222;-78
2022/06/07 18:32:18;;;;;;;4.53;1.52;;;18.20;99.90;;;;;;4907994;29;20045;-78
2022/06/07 18:34:44;;;;;;;4.60;1.27;;;18.00;99.90;;;;;;4909135;29;20033;-78
2022/06/07 18:37:10;;;;;;;3.90;1.20;;;17.90;99.90;;;;;;4908293;29;20068;-78
2022/06/07 18:39:36;;;;;;;3.50;1.27;;;17.80;99.90;;;;;;4908965;29;20040;-79
2022/06/07 18:42:01;;;;;;;3.58;1.60;;;17.70;99.90;;;;;;4908665;29;20051;-79
2022/06/07 18:44:28;;;;;;;3.22;1.30;;;17.80;99.90;;;;;;4909159;29;20036;-79
2022/06/07 18:46:54;;;;;;;3.67;0.93;;;17.70;99.90;;;;;;4908570;29;20211;-78
2022/06/07 18:49:19;;;;;;;2.78;1.15;;;17.70;99.90;;;;;;4908298;29;20036;-78
2022/06/07 18:51:45;;;;;;;4.20;1.38;;;17.60;99.90;;;;;;4907446;29;20080;-78
2022/06/07 18:54:23;;;;;;;3.17;1.20;;;17.50;99.90;;;;;;4908007;29;20052;-78
2022/06/07 18:56:50;;;;;;;2.88;1.23;;;17.50;99.90;;;;;;4908660;29;20048;-79
2022/06/07 18:59:17;;;;;;;5.28;0.88;;;17.50;99.90;;;;;;4908029;29;20033;-78
2022/06/07 19:01:43;;;;;;;3.05;1.17;;;17.60;99.90;;;;;;4908639;29;20207;-78
2022/06/07 19:04:09;;;;;;;3.05;1.08;;;17.70;99.90;;;;;;4907136;29;20040;-80
2022/06/07 19:06:35;;;;;;;3.60;0.98;;;17.60;99.90;;;;;;4908991;29;20020;-79
2022/06/07 19:09:04;;;;;;;3.90;1.05;;;17.60;99.90;;;;;;4908382;29;20057;-77
2022/06/07 19:11:37;;;;;;;2.75;1.00;;;17.60;99.90;;;;;;4907784;29;20058;-78
2022/06/07 19:14:04;;;;;;;3.40;1.10;;;17.50;99.90;;;;;;4908127;29;20036;-78
2022/06/07 19:16:30;;;;;;;3.60;1.10;;;17.40;99.90;;;;;;4906901;29;20187;-77
2022/06/07 19:18:56;;;;;;;4.82;1.23;;;17.40;99.90;;;;;;4908258;29;20341;-78
2022/06/07 19:21:28;;;;;;;3.65;1.83;;;17.40;99.90;;;;;;4907838;29;20084;-77
2022/06/07 19:23:56;;;;;;;4.18;1.40;;;17.30;99.90;;;;;;4908335;29;20134;-78
2022/06/07 19:26:22;;;;;;;3.30;1.42;;;17.40;99.90;;;;;;4907900;29;20055;-78
2022/06/07 19:28:49;;;;;;;2.60;1.20;;;17.40;99.90;;;;;;4908187;29;20028;-77
2022/06/07 19:31:15;;;;;;;3.25;1.30;;;17.30;99.90;;;;;;4908984;29;20029;-78
2022/06/07 19:33:44;;;;;;;3.05;1.38;;;17.30;99.90;;;;;;4909398;29;20061;-79
2022/06/07 19:36:10;;;;;;;;;;;17.20;99.90;;;;;;4908159;29;20033;-78
2022/06/07 19:38:36;;;;;;;5.40;1.42;;;17.10;99.90;;;;;;4921731;29;19911;-79
2022/06/07 19:41:02;;;;;;;4.65;1.10;;;17.00;99.90;;;;;;4920021;29;20039;-78
2022/06/07 19:43:28;;;;;;;3.22;0.98;;;17.00;99.90;;;;;;4909296;29;20051;-77
2022/06/07 19:45:54;;;;;;;5.88;1.35;;;16.90;99.90;;;;;;4907667;29;20036;-79
2022/06/07 19:48:20;;;;;;;2.95;1.23;;;16.90;99.90;;;;;;4907484;29;20040;-78
2022/06/07 19:50:57;;;;;;;5.63;1.13;;;16.90;99.90;;;;;;4907726;29;20047;-79
2022/06/07 19:53:25;;;;;;;2.28;0.85;;;16.90;99.90;;;;;;4907370;29;20048;-79
2022/06/07 19:55:51;;;;;;;2.50;0.80;;;16.90;99.90;;;;;;4907550;29;20040;-77
2022/06/07 19:58:17;;;;;;;3.35;0.90;;;16.90;99.90;;;;;;4907050;29;20033;-78
2022/06/07 20:00:43;;;;;;;2.33;0.80;;;16.90;99.90;;;;;;4906189;29;20043;-77
2022/06/07 20:03:10;;;;;;;2.42;0.90;;;16.90;99.90;;;;;;4907051;29;20044;-78
2022/06/07 20:05:39;;;;;;;7.43;1.27;;;16.90;99.90;;;;;;4907561;29;20032;-77
2022/06/07 20:08:07;;;;;;;2.30;1.20;;;17.00;99.90;;;;;;4906787;29;20037;-78
2022/06/07 20:10:33;;;;;;;2.55;1.13;;;17.00;99.90;;;;;;4906366;29;20022;-78
2022/06/07 20:12:59;;;;;;;2.72;1.20;;;16.90;99.90;;;;;;4907475;29;20028;-78
2022/06/07 20:15:25;;;;;;;2.88;1.10;;;16.90;99.90;;;;;;4906356;29;20066;-78
2022/06/07 20:17:52;;;;;;;2.95;1.13;;;16.80;99.90;;;;;;4907512;29;20032;-78
2022/06/07 20:20:21;;;;;;;3.15;1.15;;;16.80;99.90;;;;;;4906716;29;20088;-78
2022/06/07 20:22:47;;;;;;;4.45;1.15;;;16.80;99.90;;;;;;4907257;29;20048;-78
2022/06/07 20:25:14;;;;;;;3.30;1.13;;;16.80;99.90;;;;;;4906217;29;20032;-78
2022/06/07 20:27:40;;;;;;;3.63;1.30;;;16.70;99.90;;;;;;4907256;29;20022;-78
2022/06/07 20:30:11;;;;;;;2.92;1.30;;;16.70;99.90;;;;;;4906271;29;20036;-78
2022/06/07 20:32:38;;;;;;;6.82;1.50;;;16.70;99.90;;;;;;4907420;29;20159;-79
2022/06/07 20:35:06;;;;;;;3.75;1.13;;;16.70;99.90;;;;;;4907018;29;20045;-78
2022/06/07 20:37:32;;;;;;;2.47;1.25;;;16.70;99.90;;;;;;4907155;29;20042;-79
2022/06/07 20:39:58;;;;;;;2.33;1.02;;;16.80;99.90;;;;;;4907472;29;20032;-78
2022/06/07 20:42:26;;;;;;;3.00;1.23;;;16.80;99.90;;;;;;4906661;29;20028;-78
2022/06/07 20:44:53;;;;;;;2.85;1.20;;;16.80;99.90;;;;;;4907607;29;20032;-78
2022/06/07 20:47:19;;;;;;;3.30;1.13;;;16.90;99.90;;;;;;4906669;29;20314;-79
2022/06/07 20:49:48;;;;;;;2.42;1.00;;;16.80;99.90;;;;;;4906965;29;20032;-81
2022/06/07 20:52:16;;;;;;;2.00;1.20;;;16.80;99.90;;;;;;4906685;29;20044;-80
2022/06/07 20:54:42;;;;;;;2.20;1.10;;;16.70;99.90;;;;;;4905755;29;20218;-78
2022/06/07 20:57:10;;;;;;;3.17;1.15;;;16.70;99.90;;;;;;4906407;29;20036;-78
2022/06/07 20:59:43;;;;;;;3.83;1.20;;;16.70;99.90;;;;;;4907084;29;20099;-77
2022/06/07 21:02:10;;;;;;;3.00;1.20;;;16.60;99.90;;;;;;4905548;29;20044;-77
2022/06/07 21:04:36;;;;;;;3.03;1.05;;;16.70;99.90;;;;;;4890890;29;20063;-80
2022/06/07 21:07:03;;;;;;;3.55;1.23;;;16.70;99.90;;;;;;4907226;29;20259;-79
2022/06/07 21:09:29;;;;;;;1.92;1.00;;;16.70;99.90;;;;;;4905893;29;20040;-79
2022/06/07 21:11:57;;;;;;;3.83;1.33;;;16.70;99.90;;;;;;4906095;29;20330;-79
2022/06/07 21:14:23;;;;;;;3.17;1.30;;;16.70;99.90;;;;;;4905310;29;20024;-77
2022/06/07 21:16:50;;;;;;;4.78;1.35;;;16.70;99.90;;;;;;4905509;29;20221;-78
2022/06/07 21:19:16;;;;;;;2.78;1.25;;;16.70;99.90;;;;;;4906480;29;20041;-79
2022/06/07 21:21:42;;;;;;;3.08;1.50;;;16.70;99.90;;;;;;4907034;29;20033;-78
2022/06/07 21:24:08;;;;;;;4.78;1.67;;;16.70;99.90;;;;;;4906866;29;20084;-77
2022/06/07 21:26:34;;;;;;;2.47;1.33;;;16.70;99.90;;;;;;4906722;29;20187;-79
2022/06/07 21:29:00;;;;;;;5.32;1.40;;;16.60;99.90;;;;;;4907130;29;20028;-78
2022/06/07 21:31:26;;;;;;;2.55;1.10;;;16.60;99.90;;;;;;4905809;29;20047;-78
2022/06/07 21:36:38;;;;;;;3.20;1.10;;;16.50;99.90;;;;;;4908753;29;20036;-78
2022/06/07 21:39:05;;;;;;;3.67;1.30;;;16.50;99.90;;;;;;4909388;29;20036;-78
2022/06/07 21:41:31;;;;;;;3.05;1.42;;;16.50;99.90;;;;;;4909585;29;20318;-79
2022/06/07 21:43:57;;;;;;;2.13;1.30;;;16.50;99.90;;;;;;4910508;29;20032;-78
2022/06/07 21:46:23;;;;;;;3.92;1.23;;;16.50;99.90;;;;;;4908122;29;20055;-77
2022/06/07 21:48:49;;;;;;;4.22;1.45;;;16.50;99.90;;;;;;4909126;29;20080;-80
2022/06/07 21:51:15;;;;;;;3.35;1.42;;;16.50;99.90;;;;;;4909007;29;20040;-78
2022/06/07 21:53:41;;;;;;;2.60;1.50;;;16.40;99.90;;;;;;4910251;29;20047;-78
2022/06/07 21:56:07;;;;;;;4.80;1.45;;;16.50;99.90;;;;;;4909146;29;20103;-79
2022/06/07 21:58:33;;;;;;;4.40;1.35;;;16.40;99.90;;;;;;4909466;29;20315;-78
2022/06/07 22:00:59;;;;;;;4.07;1.70;;;16.40;99.90;;;;;;4909449;29;20040;-79
2022/06/07 22:03:25;;;;;;;2.83;1.23;;;16.50;99.90;;;;;;4908316;29;20251;-78
2022/06/07 22:05:55;;;;;;;4.07;1.58;;;16.40;99.90;;;;;;4908622;29;20036;-79
2022/06/07 22:08:22;;;;;;;2.70;1.10;;;16.40;99.90;;;;;;4909142;29;20080;-78
2022/06/07 22:10:49;;;;;;;2.80;1.65;;;16.40;99.90;;;;;;4909885;29;20020;-78
2022/06/07 22:13:17;;;;;;;4.35;1.50;;;16.30;99.90;;;;;;4909243;29;20104;-78
2022/06/07 22:15:44;;;;;;;3.67;1.50;;;16.20;99.90;;;;;;4907982;29;20049;-79
2022/06/07 22:18:11;;;;;;;3.43;1.70;;;16.10;99.90;;;;;;4909666;29;20333;-79
2022/06/07 22:20:37;;;;;;;3.50;1.42;;;16.00;99.90;;;;;;4909815;29;20062;-78
2022/06/07 22:23:04;;;;;;;3.15;1.52;;;15.80;99.90;;;;;;4909526;29;20033;-78
2022/06/07 22:25:32;;;;;;;5.03;1.65;;;15.70;99.90;;;;;;4909040;29;20107;-79
2022/06/07 22:27:58;;;;;;;3.58;1.60;;;15.60;99.90;;;;;;4909321;29;20032;-77
2022/06/07 22:30:24;;;;;;;3.15;1.58;;;15.60;99.90;;;;;;4908311;29;20100;-78
2022/06/07 22:32:51;;;;;;;4.60;1.95;;;15.50;99.90;;;;;;4909174;29;20043;-79
2022/06/07 22:35:21;;;;;;;2.67;1.75;;;15.40;99.90;;;;;;4908753;29;20115;-79
2022/06/07 22:37:47;;;;;;;3.63;1.90;;;15.40;99.90;;;;;;4908201;29;20052;-79
2022/06/07 22:40:18;;;;;;;4.20;1.80;;;15.30;99.90;;;;;;4907509;29;20283;-78
2022/06/07 22:42:44;;;;;;;4.43;2.40;;;15.30;99.90;;;;;;4909067;29;20068;-78
2022/06/07 22:45:13;;;;;;;4.53;2.40;;;15.30;99.90;;;;;;4908711;29;20081;-78
2022/06/07 22:47:39;;;;;;;4.55;2.30;;;15.20;99.90;;;;;;4908687;29;20322;-78
2022/06/07 22:50:06;;;;;;;4.30;1.70;;;15.20;99.90;;;;;;4908564;29;20044;-78
2022/06/07 22:52:41;;;;;;;4.38;1.88;;;15.20;99.90;;;;;;4907161;29;20140;-78
2022/06/07 22:55:13;;;;;;;4.72;1.50;;;15.10;99.90;;;;;;4908941;29;20054;-78
2022/06/07 22:57:45;;;;;;;3.95;1.58;;;15.10;99.90;;;;;;4909067;29;20068;-79
2022/06/07 23:00:14;;;;;;;3.08;1.40;;;15.00;99.90;;;;;;4908170;29;20152;-79
